sensor_id;sensor_type;location;lat;lon;timestamp;temperature;humidity
59307;DHT22;47983;53.016;-2.260;2022-10-16T00:01:05;9.60;99.90
59307;DHT22;47983;53.016;-2.260;2022-10-16T00:03:33;9.60;99.90
59307;DHT22;47983;53.016;-2.260;2022-10-16T00:06:01;9.60;99.90
59307;DHT22;47983;53.016;-2.260;2022-10-16T00:08:29;9.60;99.90
59307;DHT22;47983;53.016;-2.260;2022-10-16T00:11:01;9.60;99.90
59307;DHT22;47983;53.016;-2.260;2022-10-16T00:13:29;9.50;99.90
59307;DHT22;47983;53.016;-2.260;2022-10-16T00:15:58;9.50;99.90
59307;DHT22;47983;53.016;-2.260;2022-10-16T00:18:27;9.50;99.90
59307;DHT22;47983;53.016;-2.260;2022-10-16T00:20:54;9.50;99.90
59307;DHT22;47983;53.016;-2.260;2022-10-16T00:23:45;9.50;99.90
59307;DHT22;47983;53.016;-2.260;2022-10-16T00:26:15;9.50;99.90
59307;DHT22;47983;53.016;-2.260;2022-10-16T00:28:46;9.50;99.90
59307;DHT22;47983;53.016;-2.260;2022-10-16T00:31:14;9.50;99.90
59307;DHT22;47983;53.016;-2.260;2022-10-16T00:33:42;9.50;99.90
59307;DHT22;47983;53.016;-2.260;2022-10-16T00:36:10;9.50;99.90
59307;DHT22;47983;53.016;-2.260;2022-10-16T00:38:39;9.50;99.90
59307;DHT22;47983;53.016;-2.260;2022-10-16T00:41:07;9.40;99.90
59307;DHT22;47983;53.016;-2.260;2022-10-16T00:46:03;9.40;99.90
59307;DHT22;47983;53.016;-2.260;2022-10-16T00:48:30;9.40;99.90
59307;DHT22;47983;53.016;-2.260;2022-10-16T00:50:58;9.50;99.90
59307;DHT22;47983;53.016;-2.260;2022-10-16T00:53:26;9.70;99.90
59307;DHT22;47983;53.016;-2.260;2022-10-16T00:55:54;9.80;99.90
59307;DHT22;47983;53.016;-2.260;2022-10-16T00:58:21;10.00;99.90
59307;DHT22;47983;53.016;-2.260;2022-10-16T01:00:49;10.10;99.90
59307;DHT22;47983;53.016;-2.260;2022-10-16T01:03:33;10.20;99.90
59307;DHT22;47983;53.016;-2.260;2022-10-16T01:08:51;10.40;99.90
59307;DHT22;47983;53.016;-2.260;2022-10-16T01:11:22;10.40;99.90
59307;DHT22;47983;53.016;-2.260;2022-10-16T01:13:53;10.50;99.90
59307;DHT22;47983;53.016;-2.260;2022-10-16T01:16:24;10.50;99.90
59307;DHT22;47983;53.016;-2.260;2022-10-16T01:18:57;10.60;99.90
59307;DHT22;47983;53.016;-2.260;2022-10-16T01:21:28;10.60;99.90
59307;DHT22;47983;53.016;-2.260;2022-10-16T01:26:36;10.60;99.90
59307;DHT22;47983;53.016;-2.260;2022-10-16T01:31:41;10.50;99.90
59307;DHT22;47983;53.016;-2.260;2022-10-16T01:34:15;10.50;99.90
59307;DHT22;47983;53.016;-2.260;2022-10-16T01:36:45;10.40;99.90
59307;DHT22;47983;53.016;-2.260;2022-10-16T01:39:14;10.40;99.90
59307;DHT22;47983;53.016;-2.260;2022-10-16T01:41:43;10.30;99.90
59307;DHT22;47983;53.016;-2.260;2022-10-16T01:47:09;10.30;99.90
59307;DHT22;47983;53.016;-2.260;2022-10-16T01:49:38;10.10;99.90
59307;DHT22;47983;53.016;-2.260;2022-10-16T01:52:08;10.10;99.90
59307;DHT22;47983;53.016;-2.260;2022-10-16T01:54:36;10.10;99.90
59307;DHT22;47983;53.016;-2.260;2022-10-16T01:57:05;10.00;99.90
59307;DHT22;47983;53.016;-2.260;2022-10-16T01:59:42;10.00;99.90
59307;DHT22;47983;53.016;-2.260;2022-10-16T02:02:10;10.00;99.90
59307;DHT22;47983;53.016;-2.260;2022-10-16T02:04:47;9.90;99.90
59307;DHT22;47983;53.016;-2.260;2022-10-16T02:07:16;9.90;99.90
59307;DHT22;47983;53.016;-2.260;2022-10-16T02:09:44;9.90;99.90
59307;DHT22;47983;53.016;-2.260;2022-10-16T02:12:13;9.80;99.90
59307;DHT22;47983;53.016;-2.260;2022-10-16T02:14:42;9.80;99.90
59307;DHT22;47983;53.016;-2.260;2022-10-16T02:17:11;9.70;99.90
59307;DHT22;47983;53.016;-2.260;2022-10-16T02:19:39;9.70;99.90
59307;DHT22;47983;53.016;-2.260;2022-10-16T02:22:07;9.70;99.90
59307;DHT22;47983;53.016;-2.260;2022-10-16T02:27:07;9.60;99.90
59307;DHT22;47983;53.016;-2.260;2022-10-16T02:29:41;9.60;99.90
59307;DHT22;47983;53.016;-2.260;2022-10-16T02:32:12;9.50;99.90
59307;DHT22;47983;53.016;-2.260;2022-10-16T02:34:42;9.50;99.90
59307;DHT22;47983;53.016;-2.260;2022-10-16T02:37:10;9.50;99.90
59307;DHT22;47983;53.016;-2.260;2022-10-16T02:39:38;9.50;99.90
59307;DHT22;47983;53.016;-2.260;2022-10-16T02:42:13;9.50;99.90
59307;DHT22;47983;53.016;-2.260;2022-10-16T02:44:41;9.40;99.90
59307;DHT22;47983;53.016;-2.260;2022-10-16T02:47:08;9.40;99.90
59307;DHT22;47983;53.016;-2.260;2022-10-16T02:49:41;9.30;99.90
59307;DHT22;47983;53.016;-2.260;2022-10-16T02:52:08;9.30;99.90
59307;DHT22;47983;53.016;-2.260;2022-10-16T02:54:36;9.30;99.90
59307;DHT22;47983;53.016;-2.260;2022-10-16T02:57:03;9.30;99.90
59307;DHT22;47983;53.016;-2.260;2022-10-16T02:59:30;9.30;99.90
59307;DHT22;47983;53.016;-2.260;2022-10-16T03:01:58;9.20;99.90
59307;DHT22;47983;53.016;-2.260;2022-10-16T03:04:25;9.10;99.90
59307;DHT22;47983;53.016;-2.260;2022-10-16T03:06:52;9.10;99.90
59307;DHT22;47983;53.016;-2.260;2022-10-16T03:09:20;9.10;99.90
59307;DHT22;47983;53.016;-2.260;2022-10-16T03:11:47;9.10;99.90
59307;DHT22;47983;53.016;-2.260;2022-10-16T03:14:14;9.00;99.90
59307;DHT22;47983;53.016;-2.260;2022-10-16T03:16:42;9.00;99.90
59307;DHT22;47983;53.016;-2.260;2022-10-16T03:19:10;8.90;99.90
59307;DHT22;47983;53.016;-2.260;2022-10-16T03:21:37;8.90;99.90
59307;DHT22;47983;53.016;-2.260;2022-10-16T03:24:05;8.90;99.90
59307;DHT22;47983;53.016;-2.260;2022-10-16T03:26:32;8.80;99.90
59307;DHT22;47983;53.016;-2.260;2022-10-16T03:28:59;8.80;99.90
59307;DHT22;47983;53.016;-2.260;2022-10-16T03:31:27;8.70;99.90
59307;DHT22;47983;53.016;-2.260;2022-10-16T03:33:54;8.70;99.90
59307;DHT22;47983;53.016;-2.260;2022-10-16T03:36:21;8.70;99.90
59307;DHT22;47983;53.016;-2.260;2022-10-16T03:38:49;8.60;99.90
59307;DHT22;47983;53.016;-2.260;2022-10-16T03:41:16;8.60;99.90
59307;DHT22;47983;53.016;-2.260;2022-10-16T03:43:44;8.50;99.90
59307;DHT22;47983;53.016;-2.260;2022-10-16T03:46:11;8.50;99.90
59307;DHT22;47983;53.016;-2.260;2022-10-16T03:48:38;8.50;99.90
59307;DHT22;47983;53.016;-2.260;2022-10-16T03:51:07;8.40;99.90
59307;DHT22;47983;53.016;-2.260;2022-10-16T03:53:34;8.40;99.90
59307;DHT22;47983;53.016;-2.260;2022-10-16T03:56:01;8.40;99.90
59307;DHT22;47983;53.016;-2.260;2022-10-16T03:58:29;8.40;99.90
59307;DHT22;47983;53.016;-2.260;2022-10-16T04:00:56;8.40;99.90
59307;DHT22;47983;53.016;-2.260;2022-10-16T04:03:24;8.30;99.90
59307;DHT22;47983;53.016;-2.260;2022-10-16T04:05:51;8.30;99.90
59307;DHT22;47983;53.016;-2.260;2022-10-16T04:08:18;8.30;99.90
59307;DHT22;47983;53.016;-2.260;2022-10-16T04:10:46;8.30;99.90
59307;DHT22;47983;53.016;-2.260;2022-10-16T04:13:13;8.20;99.90
59307;DHT22;47983;53.016;-2.260;2022-10-16T04:15:41;8.30;99.90
59307;DHT22;47983;53.016;-2.260;2022-10-16T04:18:08;8.20;99.90
59307;DHT22;47983;53.016;-2.260;2022-10-16T04:20:36;8.20;99.90
59307;DHT22;47983;53.016;-2.260;2022-10-16T04:23:03;8.20;99.90
59307;DHT22;47983;53.016;-2.260;2022-10-16T04:25:31;8.10;99.90
59307;DHT22;47983;53.016;-2.260;2022-10-16T04:27:58;8.10;99.90
59307;DHT22;47983;53.016;-2.260;2022-10-16T04:30:25;8.00;99.90
59307;DHT22;47983;53.016;-2.260;2022-10-16T04:32:53;8.00;99.90
59307;DHT22;47983;53.016;-2.260;2022-10-16T04:35:21;8.00;99.90
59307;DHT22;47983;53.016;-2.260;2022-10-16T04:37:48;8.00;99.90
59307;DHT22;47983;53.016;-2.260;2022-10-16T04:40:16;7.90;99.90
59307;DHT22;47983;53.016;-2.260;2022-10-16T04:42:43;7.90;99.90
59307;DHT22;47983;53.016;-2.260;2022-10-16T04:45:10;7.90;99.90
59307;DHT22;47983;53.016;-2.260;2022-10-16T04:47:43;7.80;99.90
59307;DHT22;47983;53.016;-2.260;2022-10-16T04:50:10;7.70;99.90
59307;DHT22;47983;53.016;-2.260;2022-10-16T04:52:38;7.70;99.90
59307;DHT22;47983;53.016;-2.260;2022-10-16T04:55:05;7.70;99.90
59307;DHT22;47983;53.016;-2.260;2022-10-16T04:57:33;7.70;99.90
59307;DHT22;47983;53.016;-2.260;2022-10-16T05:00:00;7.70;99.90
59307;DHT22;47983;53.016;-2.260;2022-10-16T05:02:28;7.70;99.90
59307;DHT22;47983;53.016;-2.260;2022-10-16T05:04:56;7.70;99.90
59307;DHT22;47983;53.016;-2.260;2022-10-16T05:07:23;7.70;99.90
59307;DHT22;47983;53.016;-2.260;2022-10-16T05:09:51;7.70;99.90
59307;DHT22;47983;53.016;-2.260;2022-10-16T05:12:18;7.70;99.90
59307;DHT22;47983;53.016;-2.260;2022-10-16T05:14:46;7.70;99.90
59307;DHT22;47983;53.016;-2.260;2022-10-16T05:17:13;7.70;99.90
59307;DHT22;47983;53.016;-2.260;2022-10-16T05:19:41;7.70;99.90
59307;DHT22;47983;53.016;-2.260;2022-10-16T05:22:08;7.80;99.90
59307;DHT22;47983;53.016;-2.260;2022-10-16T05:24:36;7.70;99.90
59307;DHT22;47983;53.016;-2.260;2022-10-16T05:27:03;7.70;99.90
59307;DHT22;47983;53.016;-2.260;2022-10-16T05:29:31;7.70;99.90
59307;DHT22;47983;53.016;-2.260;2022-10-16T05:31:59;7.70;99.90
59307;DHT22;47983;53.016;-2.260;2022-10-16T05:34:26;7.70;99.90
59307;DHT22;47983;53.016;-2.260;2022-10-16T05:36:53;7.60;99.90
59307;DHT22;47983;53.016;-2.260;2022-10-16T05:39:21;7.60;99.90
59307;DHT22;47983;53.016;-2.260;2022-10-16T05:41:49;7.60;99.90
59307;DHT22;47983;53.016;-2.260;2022-10-16T05:44:16;7.60;99.90
59307;DHT22;47983;53.016;-2.260;2022-10-16T05:46:45;7.70;99.90
59307;DHT22;47983;53.016;-2.260;2022-10-16T05:49:13;7.60;99.90
59307;DHT22;47983;53.016;-2.260;2022-10-16T05:51:40;7.60;99.90
59307;DHT22;47983;53.016;-2.260;2022-10-16T05:54:08;7.60;99.90
59307;DHT22;47983;53.016;-2.260;2022-10-16T05:56:36;7.60;99.90
59307;DHT22;47983;53.016;-2.260;2022-10-16T05:59:04;7.60;99.90
59307;DHT22;47983;53.016;-2.260;2022-10-16T06:01:31;7.60;99.90
59307;DHT22;47983;53.016;-2.260;2022-10-16T06:03:59;7.60;99.90
59307;DHT22;47983;53.016;-2.260;2022-10-16T06:06:27;7.60;99.90
59307;DHT22;47983;53.016;-2.260;2022-10-16T06:08:55;7.60;99.90
59307;DHT22;47983;53.016;-2.260;2022-10-16T06:11:24;7.60;99.90
59307;DHT22;47983;53.016;-2.260;2022-10-16T06:13:52;7.60;99.90
59307;DHT22;47983;53.016;-2.260;2022-10-16T06:16:20;7.50;99.90
59307;DHT22;47983;53.016;-2.260;2022-10-16T06:18:47;7.50;99.90
59307;DHT22;47983;53.016;-2.260;2022-10-16T06:21:19;7.50;99.90
59307;DHT22;47983;53.016;-2.260;2022-10-16T06:23:47;7.50;99.90
59307;DHT22;47983;53.016;-2.260;2022-10-16T06:26:16;7.40;99.90
59307;DHT22;47983;53.016;-2.260;2022-10-16T06:28:44;7.40;99.90
59307;DHT22;47983;53.016;-2.260;2022-10-16T06:31:12;7.30;99.90
59307;DHT22;47983;53.016;-2.260;2022-10-16T06:33:40;7.30;99.90
59307;DHT22;47983;53.016;-2.260;2022-10-16T06:36:12;7.20;99.90
59307;DHT22;47983;53.016;-2.260;2022-10-16T06:38:40;7.20;99.90
59307;DHT22;47983;53.016;-2.260;2022-10-16T06:41:08;7.10;99.90
59307;DHT22;47983;53.016;-2.260;2022-10-16T06:43:36;7.10;99.90
59307;DHT22;47983;53.016;-2.260;2022-10-16T06:46:04;7.00;99.90
59307;DHT22;47983;53.016;-2.260;2022-10-16T06:48:34;7.00;99.90
59307;DHT22;47983;53.016;-2.260;2022-10-16T06:51:03;6.90;99.90
59307;DHT22;47983;53.016;-2.260;2022-10-16T06:53:36;6.90;99.90
59307;DHT22;47983;53.016;-2.260;2022-10-16T06:56:21;6.90;99.90
59307;DHT22;47983;53.016;-2.260;2022-10-16T06:58:49;6.90;99.90
59307;DHT22;47983;53.016;-2.260;2022-10-16T07:01:21;6.80;99.90
59307;DHT22;47983;53.016;-2.260;2022-10-16T07:03:49;6.90;99.90
59307;DHT22;47983;53.016;-2.260;2022-10-16T07:06:17;6.90;99.90
59307;DHT22;47983;53.016;-2.260;2022-10-16T07:08:45;6.90;99.90
59307;DHT22;47983;53.016;-2.260;2022-10-16T07:11:14;6.90;99.90
59307;DHT22;47983;53.016;-2.260;2022-10-16T07:13:42;6.90;99.90
59307;DHT22;47983;53.016;-2.260;2022-10-16T07:16:11;7.00;99.90
59307;DHT22;47983;53.016;-2.260;2022-10-16T07:18:40;7.00;99.90
59307;DHT22;47983;53.016;-2.260;2022-10-16T07:21:10;7.10;99.90
59307;DHT22;47983;53.016;-2.260;2022-10-16T07:23:38;7.10;99.90
59307;DHT22;47983;53.016;-2.260;2022-10-16T07:26:06;7.10;99.90
59307;DHT22;47983;53.016;-2.260;2022-10-16T07:28:34;7.20;99.90
59307;DHT22;47983;53.016;-2.260;2022-10-16T07:31:02;7.20;99.90
59307;DHT22;47983;53.016;-2.260;2022-10-16T07:33:29;7.20;99.90
59307;DHT22;47983;53.016;-2.260;2022-10-16T07:35:57;7.20;99.90
59307;DHT22;47983;53.016;-2.260;2022-10-16T07:38:25;7.30;99.90
59307;DHT22;47983;53.016;-2.260;2022-10-16T07:41:02;7.30;99.90
59307;DHT22;47983;53.016;-2.260;2022-10-16T07:43:30;7.30;99.90
59307;DHT22;47983;53.016;-2.260;2022-10-16T07:45:58;7.40;99.90
59307;DHT22;47983;53.016;-2.260;2022-10-16T07:48:32;7.40;99.90
59307;DHT22;47983;53.016;-2.260;2022-10-16T07:51:01;7.50;99.90
59307;DHT22;47983;53.016;-2.260;2022-10-16T07:53:29;7.50;99.90
59307;DHT22;47983;53.016;-2.260;2022-10-16T07:56:06;7.50;99.90
59307;DHT22;47983;53.016;-2.260;2022-10-16T07:58:34;7.60;99.90
59307;DHT22;47983;53.016;-2.260;2022-10-16T08:01:05;7.60;99.90
59307;DHT22;47983;53.016;-2.260;2022-10-16T08:03:32;7.70;99.90
59307;DHT22;47983;53.016;-2.260;2022-10-16T08:06:01;7.70;99.90
59307;DHT22;47983;53.016;-2.260;2022-10-16T08:08:28;7.80;99.90
59307;DHT22;47983;53.016;-2.260;2022-10-16T08:10:56;7.90;99.90
59307;DHT22;47983;53.016;-2.260;2022-10-16T08:13:24;7.90;99.90
59307;DHT22;47983;53.016;-2.260;2022-10-16T08:15:51;8.00;99.90
59307;DHT22;47983;53.016;-2.260;2022-10-16T08:18:20;8.10;99.90
59307;DHT22;47983;53.016;-2.260;2022-10-16T08:20:48;8.20;99.90
59307;DHT22;47983;53.016;-2.260;2022-10-16T08:23:15;8.20;99.90
59307;DHT22;47983;53.016;-2.260;2022-10-16T08:25:43;8.30;99.90
59307;DHT22;47983;53.016;-2.260;2022-10-16T08:28:10;8.40;99.90
59307;DHT22;47983;53.016;-2.260;2022-10-16T08:30:38;8.40;99.90
59307;DHT22;47983;53.016;-2.260;2022-10-16T08:33:05;8.50;99.90
59307;DHT22;47983;53.016;-2.260;2022-10-16T08:35:33;8.60;99.90
59307;DHT22;47983;53.016;-2.260;2022-10-16T08:38:02;8.60;99.90
59307;DHT22;47983;53.016;-2.260;2022-10-16T08:40:30;8.70;99.90
59307;DHT22;47983;53.016;-2.260;2022-10-16T08:50:29;9.00;99.90
59307;DHT22;47983;53.016;-2.260;2022-10-16T08:52:57;9.10;99.90
59307;DHT22;47983;53.016;-2.260;2022-10-16T08:55:32;9.20;99.90
59307;DHT22;47983;53.016;-2.260;2022-10-16T08:58:02;9.20;99.90
59307;DHT22;47983;53.016;-2.260;2022-10-16T09:00:36;10.00;99.90
59307;DHT22;47983;53.016;-2.260;2022-10-16T09:03:16;9.30;99.90
59307;DHT22;47983;53.016;-2.260;2022-10-16T09:05:57;9.40;99.90
59307;DHT22;47983;53.016;-2.260;2022-10-16T09:08:34;9.50;99.90
59307;DHT22;47983;53.016;-2.260;2022-10-16T09:18:41;9.80;99.90
59307;DHT22;47983;53.016;-2.260;2022-10-16T09:23:44;9.90;99.90
59307;DHT22;47983;53.016;-2.260;2022-10-16T09:26:12;10.00;99.90
59307;DHT22;47983;53.016;-2.260;2022-10-16T09:28:41;10.00;99.90
59307;DHT22;47983;53.016;-2.260;2022-10-16T09:31:18;10.00;99.90
59307;DHT22;47983;53.016;-2.260;2022-10-16T09:33:54;10.10;99.90
59307;DHT22;47983;53.016;-2.260;2022-10-16T09:36:22;10.20;99.90
59307;DHT22;47983;53.016;-2.260;2022-10-16T09:39:00;10.20;99.90
59307;DHT22;47983;53.016;-2.260;2022-10-16T09:41:28;10.30;99.90
59307;DHT22;47983;53.016;-2.260;2022-10-16T09:43:56;10.40;99.90
59307;DHT22;47983;53.016;-2.260;2022-10-16T09:46:29;10.50;99.90
59307;DHT22;47983;53.016;-2.260;2022-10-16T09:48:57;10.60;99.90
59307;DHT22;47983;53.016;-2.260;2022-10-16T09:51:32;10.80;99.90
59307;DHT22;47983;53.016;-2.260;2022-10-16T09:56:35;11.00;99.90
59307;DHT22;47983;53.016;-2.260;2022-10-16T09:59:08;11.10;99.90
59307;DHT22;47983;53.016;-2.260;2022-10-16T10:01:36;11.10;99.90
59307;DHT22;47983;53.016;-2.260;2022-10-16T10:04:05;11.20;99.90
59307;DHT22;47983;53.016;-2.260;2022-10-16T10:06:34;11.30;99.90
59307;DHT22;47983;53.016;-2.260;2022-10-16T10:09:18;11.30;99.90
59307;DHT22;47983;53.016;-2.260;2022-10-16T10:14:22;11.50;99.90
59307;DHT22;47983;53.016;-2.260;2022-10-16T10:16:51;11.60;99.90
59307;DHT22;47983;53.016;-2.260;2022-10-16T10:19:20;11.70;99.90
59307;DHT22;47983;53.016;-2.260;2022-10-16T10:21:48;11.80;99.90
59307;DHT22;47983;53.016;-2.260;2022-10-16T10:24:16;11.90;99.90
59307;DHT22;47983;53.016;-2.260;2022-10-16T10:27:08;12.00;99.90
59307;DHT22;47983;53.016;-2.260;2022-10-16T10:29:53;12.10;99.90
59307;DHT22;47983;53.016;-2.260;2022-10-16T10:32:29;12.20;99.90
59307;DHT22;47983;53.016;-2.260;2022-10-16T10:40:19;12.30;99.90
59307;DHT22;47983;53.016;-2.260;2022-10-16T10:45:18;12.50;99.90
59307;DHT22;47983;53.016;-2.260;2022-10-16T10:48:03;12.60;99.90
59307;DHT22;47983;53.016;-2.260;2022-10-16T10:55:37;13.00;99.90
59307;DHT22;47983;53.016;-2.260;2022-10-16T11:03:31;13.50;99.90
59307;DHT22;47983;53.016;-2.260;2022-10-16T11:06:06;13.60;99.90
59307;DHT22;47983;53.016;-2.260;2022-10-16T11:08:37;13.70;99.90
59307;DHT22;47983;53.016;-2.260;2022-10-16T11:11:08;13.90;99.90
59307;DHT22;47983;53.016;-2.260;2022-10-16T11:13:39;14.00;99.90
59307;DHT22;47983;53.016;-2.260;2022-10-16T11:16:12;14.10;99.90
59307;DHT22;47983;53.016;-2.260;2022-10-16T11:21:27;14.40;99.90
59307;DHT22;47983;53.016;-2.260;2022-10-16T11:23:59;14.50;99.90
59307;DHT22;47983;53.016;-2.260;2022-10-16T11:26:28;14.60;99.90
59307;DHT22;47983;53.016;-2.260;2022-10-16T11:28:57;14.60;99.90
59307;DHT22;47983;53.016;-2.260;2022-10-16T11:31:36;14.60;99.90
59307;DHT22;47983;53.016;-2.260;2022-10-16T11:39:30;14.40;99.90
59307;DHT22;47983;53.016;-2.260;2022-10-16T11:47:30;13.80;99.90
59307;DHT22;47983;53.016;-2.260;2022-10-16T11:50:26;13.60;99.90
59307;DHT22;47983;53.016;-2.260;2022-10-16T11:55:38;13.40;99.90
59307;DHT22;47983;53.016;-2.260;2022-10-16T12:03:36;13.30;99.90
59307;DHT22;47983;53.016;-2.260;2022-10-16T12:06:13;13.40;99.90
59307;DHT22;47983;53.016;-2.260;2022-10-16T12:08:41;13.50;99.90
59307;DHT22;47983;53.016;-2.260;2022-10-16T12:11:53;13.60;99.90
59307;DHT22;47983;53.016;-2.260;2022-10-16T12:14:19;13.70;99.90
59307;DHT22;47983;53.016;-2.260;2022-10-16T12:19:19;13.80;99.90
59307;DHT22;47983;53.016;-2.260;2022-10-16T12:21:46;13.80;99.90
59307;DHT22;47983;53.016;-2.260;2022-10-16T12:27:01;13.70;99.90
59307;DHT22;47983;53.016;-2.260;2022-10-16T12:31:59;13.80;99.90
59307;DHT22;47983;53.016;-2.260;2022-10-16T12:34:32;13.90;99.90
59307;DHT22;47983;53.016;-2.260;2022-10-16T12:39:47;14.10;99.90
59307;DHT22;47983;53.016;-2.260;2022-10-16T12:44:49;14.50;99.90
59307;DHT22;47983;53.016;-2.260;2022-10-16T12:47:24;14.60;99.90
59307;DHT22;47983;53.016;-2.260;2022-10-16T12:50:02;14.70;99.90
59307;DHT22;47983;53.016;-2.260;2022-10-16T12:52:38;14.70;99.90
59307;DHT22;47983;53.016;-2.260;2022-10-16T12:55:12;14.70;99.90
59307;DHT22;47983;53.016;-2.260;2022-10-16T13:00:47;14.40;99.90
59307;DHT22;47983;53.016;-2.260;2022-10-16T13:06:20;14.10;99.90
59307;DHT22;47983;53.016;-2.260;2022-10-16T13:14:03;13.80;99.90
59307;DHT22;47983;53.016;-2.260;2022-10-16T13:16:50;13.70;99.90
59307;DHT22;47983;53.016;-2.260;2022-10-16T13:19:30;13.70;99.90
59307;DHT22;47983;53.016;-2.260;2022-10-16T13:22:12;13.70;99.90
59307;DHT22;47983;53.016;-2.260;2022-10-16T13:24:56;13.80;99.90
59307;DHT22;47983;53.016;-2.260;2022-10-16T13:27:34;13.90;99.90
59307;DHT22;47983;53.016;-2.260;2022-10-16T13:30:19;14.30;99.90
59307;DHT22;47983;53.016;-2.260;2022-10-16T13:33:00;14.90;99.90
59307;DHT22;47983;53.016;-2.260;2022-10-16T13:35:29;15.90;99.90
59307;DHT22;47983;53.016;-2.260;2022-10-16T13:38:05;16.60;99.90
59307;DHT22;47983;53.016;-2.260;2022-10-16T13:40:33;17.30;99.90
59307;DHT22;47983;53.016;-2.260;2022-10-16T13:43:01;17.40;97.60
59307;DHT22;47983;53.016;-2.260;2022-10-16T13:45:29;17.30;97.30
59307;DHT22;47983;53.016;-2.260;2022-10-16T13:48:04;17.00;97.30
59307;DHT22;47983;53.016;-2.260;2022-10-16T13:50:32;16.40;97.60
59307;DHT22;47983;53.016;-2.260;2022-10-16T13:53:34;16.20;97.90
59307;DHT22;47983;53.016;-2.260;2022-10-16T13:55:52;15.90;98.30
59307;DHT22;47983;53.016;-2.260;2022-10-16T13:58:20;15.50;98.60
59307;DHT22;47983;53.016;-2.260;2022-10-16T14:00:57;15.30;99.10
59307;DHT22;47983;53.016;-2.260;2022-10-16T14:03:26;15.00;99.70
59307;DHT22;47983;53.016;-2.260;2022-10-16T14:06:03;14.80;99.90
59307;DHT22;47983;53.016;-2.260;2022-10-16T14:08:32;14.70;99.70
59307;DHT22;47983;53.016;-2.260;2022-10-16T14:11:00;14.60;99.30
59307;DHT22;47983;53.016;-2.260;2022-10-16T14:15:55;14.60;99.90
59307;DHT22;47983;53.016;-2.260;2022-10-16T14:18:26;14.60;99.30
59307;DHT22;47983;53.016;-2.260;2022-10-16T14:21:11;14.60;99.90
59307;DHT22;47983;53.016;-2.260;2022-10-16T14:23:40;14.60;99.70
59307;DHT22;47983;53.016;-2.260;2022-10-16T14:28:36;14.40;99.90
59307;DHT22;47983;53.016;-2.260;2022-10-16T14:31:17;14.40;99.90
59307;DHT22;47983;53.016;-2.260;2022-10-16T14:33:50;14.30;99.80
59307;DHT22;47983;53.016;-2.260;2022-10-16T14:36:18;14.20;99.90
59307;DHT22;47983;53.016;-2.260;2022-10-16T14:41:20;14.20;99.90
59307;DHT22;47983;53.016;-2.260;2022-10-16T14:43:49;14.10;99.90
59307;DHT22;47983;53.016;-2.260;2022-10-16T14:46:20;14.10;99.90
59307;DHT22;47983;53.016;-2.260;2022-10-16T14:48:49;14.80;99.90
59307;DHT22;47983;53.016;-2.260;2022-10-16T14:51:17;14.10;99.90
59307;DHT22;47983;53.016;-2.260;2022-10-16T14:53:46;14.10;99.90
59307;DHT22;47983;53.016;-2.260;2022-10-16T14:56:17;14.10;99.90
59307;DHT22;47983;53.016;-2.260;2022-10-16T14:58:45;14.10;99.90
59307;DHT22;47983;53.016;-2.260;2022-10-16T15:01:13;14.10;99.90
59307;DHT22;47983;53.016;-2.260;2022-10-16T15:03:40;14.10;99.90
59307;DHT22;47983;53.016;-2.260;2022-10-16T15:06:11;14.10;99.90
59307;DHT22;47983;53.016;-2.260;2022-10-16T15:08:39;14.20;99.90
59307;DHT22;47983;53.016;-2.260;2022-10-16T15:11:14;14.20;99.90
59307;DHT22;47983;53.016;-2.260;2022-10-16T15:13:42;14.40;99.90
59307;DHT22;47983;53.016;-2.260;2022-10-16T15:16:15;14.30;99.90
59307;DHT22;47983;53.016;-2.260;2022-10-16T15:18:43;14.30;99.90
59307;DHT22;47983;53.016;-2.260;2022-10-16T15:21:16;14.20;99.90
59307;DHT22;47983;53.016;-2.260;2022-10-16T15:23:48;14.10;99.90
59307;DHT22;47983;53.016;-2.260;2022-10-16T15:26:15;14.10;99.90
59307;DHT22;47983;53.016;-2.260;2022-10-16T15:28:43;14.10;99.90
59307;DHT22;47983;53.016;-2.260;2022-10-16T15:31:11;13.90;99.90
59307;DHT22;47983;53.016;-2.260;2022-10-16T15:33:38;14.00;99.90
59307;DHT22;47983;53.016;-2.260;2022-10-16T15:36:06;14.00;99.90
59307;DHT22;47983;53.016;-2.260;2022-10-16T15:38:34;14.00;99.90
59307;DHT22;47983;53.016;-2.260;2022-10-16T15:41:01;13.90;99.90
59307;DHT22;47983;53.016;-2.260;2022-10-16T15:43:29;13.90;99.90
59307;DHT22;47983;53.016;-2.260;2022-10-16T15:46:03;13.90;99.90
59307;DHT22;47983;53.016;-2.260;2022-10-16T15:48:31;13.80;99.90
59307;DHT22;47983;53.016;-2.260;2022-10-16T15:50:59;13.70;99.90
59307;DHT22;47983;53.016;-2.260;2022-10-16T15:53:27;13.70;99.90
59307;DHT22;47983;53.016;-2.260;2022-10-16T15:55:57;13.60;99.90
59307;DHT22;47983;53.016;-2.260;2022-10-16T15:58:24;13.60;99.90
59307;DHT22;47983;53.016;-2.260;2022-10-16T16:00:58;13.50;99.90
59307;DHT22;47983;53.016;-2.260;2022-10-16T16:03:29;13.50;99.90
59307;DHT22;47983;53.016;-2.260;2022-10-16T16:05:57;13.40;99.90
59307;DHT22;47983;53.016;-2.260;2022-10-16T16:08:24;13.30;99.90
59307;DHT22;47983;53.016;-2.260;2022-10-16T16:11:05;13.30;99.90
59307;DHT22;47983;53.016;-2.260;2022-10-16T16:13:33;13.30;99.90
59307;DHT22;47983;53.016;-2.260;2022-10-16T16:16:01;13.20;99.90
59307;DHT22;47983;53.016;-2.260;2022-10-16T16:18:31;13.20;99.90
59307;DHT22;47983;53.016;-2.260;2022-10-16T16:20:59;13.20;99.90
59307;DHT22;47983;53.016;-2.260;2022-10-16T16:23:26;13.20;99.90
59307;DHT22;47983;53.016;-2.260;2022-10-16T16:28:30;13.10;99.90
59307;DHT22;47983;53.016;-2.260;2022-10-16T16:30:58;13.10;99.90
59307;DHT22;47983;53.016;-2.260;2022-10-16T16:33:26;13.10;99.90
59307;DHT22;47983;53.016;-2.260;2022-10-16T16:36:03;13.00;99.90
59307;DHT22;47983;53.016;-2.260;2022-10-16T16:38:36;13.00;99.90
59307;DHT22;47983;53.016;-2.260;2022-10-16T16:41:23;13.00;99.90
59307;DHT22;47983;53.016;-2.260;2022-10-16T16:43:52;12.90;99.90
59307;DHT22;47983;53.016;-2.260;2022-10-16T16:46:20;12.90;99.90
59307;DHT22;47983;53.016;-2.260;2022-10-16T16:48:47;12.80;99.90
59307;DHT22;47983;53.016;-2.260;2022-10-16T16:51:17;12.80;99.90
59307;DHT22;47983;53.016;-2.260;2022-10-16T16:53:48;12.80;99.90
59307;DHT22;47983;53.016;-2.260;2022-10-16T16:56:16;12.80;99.90
59307;DHT22;47983;53.016;-2.260;2022-10-16T16:58:45;12.70;99.90
59307;DHT22;47983;53.016;-2.260;2022-10-16T17:01:12;12.70;99.90
59307;DHT22;47983;53.016;-2.260;2022-10-16T17:03:49;12.70;99.90
59307;DHT22;47983;53.016;-2.260;2022-10-16T17:06:21;12.70;99.90
59307;DHT22;47983;53.016;-2.260;2022-10-16T17:08:49;12.70;99.90
59307;DHT22;47983;53.016;-2.260;2022-10-16T17:11:18;12.70;99.90
59307;DHT22;47983;53.016;-2.260;2022-10-16T17:13:46;12.70;99.90
59307;DHT22;47983;53.016;-2.260;2022-10-16T17:16:18;12.70;99.90
59307;DHT22;47983;53.016;-2.260;2022-10-16T17:18:46;12.60;99.90
59307;DHT22;47983;53.016;-2.260;2022-10-16T17:21:13;12.60;99.90
59307;DHT22;47983;53.016;-2.260;2022-10-16T17:23:41;12.60;99.90
59307;DHT22;47983;53.016;-2.260;2022-10-16T17:26:12;12.60;99.90
59307;DHT22;47983;53.016;-2.260;2022-10-16T17:28:41;12.60;99.90
59307;DHT22;47983;53.016;-2.260;2022-10-16T17:31:10;12.60;99.90
59307;DHT22;47983;53.016;-2.260;2022-10-16T17:33:38;12.60;99.90